sensor_id;sensor_type;location;lat;lon;timestamp;P1;durP1;ratioP1;P2;durP2;ratioP2
19235;SDS011;9752;54.270;12.470;2022-10-03T00:01:08;15.93;;;5.70;;
19235;SDS011;9752;54.270;12.470;2022-10-03T00:06:31;19.13;;;5.50;;
19235;SDS011;9752;54.270;12.470;2022-10-03T00:11:47;17.87;;;5.77;;
19235;SDS011;9752;54.270;12.470;2022-10-03T00:17:01;14.50;;;5.03;;
19235;SDS011;9752;54.270;12.470;2022-10-03T00:22:12;13.90;;;5.40;;
19235;SDS011;9752;54.270;12.470;2022-10-03T00:27:26;17.50;;;6.33;;
19235;SDS011;9752;54.270;12.470;2022-10-03T00:32:44;15.30;;;4.93;;
19235;SDS011;9752;54.270;12.470;2022-10-03T00:37:59;21.20;;;5.40;;
19235;SDS011;9752;54.270;12.470;2022-10-03T00:54:57;19.47;;;4.50;;
19235;SDS011;9752;54.270;12.470;2022-10-03T01:00:13;14.43;;;5.03;;
19235;SDS011;9752;54.270;12.470;2022-10-03T01:05:22;18.60;;;5.67;;
19235;SDS011;9752;54.270;12.470;2022-10-03T01:10:37;19.87;;;5.17;;
19235;SDS011;9752;54.270;12.470;2022-10-03T01:15:47;16.53;;;4.57;;
19235;SDS011;9752;54.270;12.470;2022-10-03T01:20:57;16.17;;;5.27;;
19235;SDS011;9752;54.270;12.470;2022-10-03T01:26:21;19.10;;;6.03;;
19235;SDS011;9752;54.270;12.470;2022-10-03T01:31:43;14.00;;;5.20;;
19235;SDS011;9752;54.270;12.470;2022-10-03T01:36:51;17.60;;;5.43;;
19235;SDS011;9752;54.270;12.470;2022-10-03T01:42:03;13.33;;;4.80;;
19235;SDS011;9752;54.270;12.470;2022-10-03T01:47:16;15.37;;;6.67;;
19235;SDS011;9752;54.270;12.470;2022-10-03T01:52:24;21.87;;;6.13;;
19235;SDS011;9752;54.270;12.470;2022-10-03T01:57:37;17.30;;;4.70;;
19235;SDS011;9752;54.270;12.470;2022-10-03T02:02:48;16.37;;;5.40;;
19235;SDS011;9752;54.270;12.470;2022-10-03T02:07:54;18.20;;;5.60;;
19235;SDS011;9752;54.270;12.470;2022-10-03T02:13:04;25.63;;;6.30;;
19235;SDS011;9752;54.270;12.470;2022-10-03T02:18:14;20.70;;;5.60;;
19235;SDS011;9752;54.270;12.470;2022-10-03T02:23:23;26.23;;;6.20;;
19235;SDS011;9752;54.270;12.470;2022-10-03T02:28:44;19.83;;;5.83;;
19235;SDS011;9752;54.270;12.470;2022-10-03T02:34:02;19.13;;;5.77;;
19235;SDS011;9752;54.270;12.470;2022-10-03T02:39:26;23.83;;;6.80;;
19235;SDS011;9752;54.270;12.470;2022-10-03T02:44:44;24.90;;;6.33;;
19235;SDS011;9752;54.270;12.470;2022-10-03T02:55:49;18.57;;;5.17;;
19235;SDS011;9752;54.270;12.470;2022-10-03T03:01:15;16.40;;;5.77;;
19235;SDS011;9752;54.270;12.470;2022-10-03T03:17:45;16.50;;;5.70;;
19235;SDS011;9752;54.270;12.470;2022-10-03T03:22:58;21.10;;;6.13;;
19235;SDS011;9752;54.270;12.470;2022-10-03T03:28:23;16.80;;;6.13;;
19235;SDS011;9752;54.270;12.470;2022-10-03T03:33:35;19.63;;;6.63;;
19235;SDS011;9752;54.270;12.470;2022-10-03T03:38:48;18.70;;;5.43;;
19235;SDS011;9752;54.270;12.470;2022-10-03T03:44:07;26.37;;;5.57;;
19235;SDS011;9752;54.270;12.470;2022-10-03T03:49:37;27.77;;;6.37;;
19235;SDS011;9752;54.270;12.470;2022-10-03T03:55:06;21.67;;;7.30;;
19235;SDS011;9752;54.270;12.470;2022-10-03T04:00:17;21.90;;;6.03;;
19235;SDS011;9752;54.270;12.470;2022-10-03T04:05:25;26.30;;;5.63;;
19235;SDS011;9752;54.270;12.470;2022-10-03T04:10:38;34.63;;;7.43;;
19235;SDS011;9752;54.270;12.470;2022-10-03T04:15:51;18.80;;;5.83;;
19235;SDS011;9752;54.270;12.470;2022-10-03T04:26:40;23.70;;;6.30;;
19235;SDS011;9752;54.270;12.470;2022-10-03T04:32:00;21.53;;;6.17;;
19235;SDS011;9752;54.270;12.470;2022-10-03T04:37:17;29.93;;;6.67;;
19235;SDS011;9752;54.270;12.470;2022-10-03T04:42:28;17.50;;;5.97;;
19235;SDS011;9752;54.270;12.470;2022-10-03T04:47:44;24.17;;;7.00;;
19235;SDS011;9752;54.270;12.470;2022-10-03T04:52:55;26.73;;;6.50;;
19235;SDS011;9752;54.270;12.470;2022-10-03T04:58:13;23.23;;;7.43;;
19235;SDS011;9752;54.270;12.470;2022-10-03T05:03:27;27.13;;;7.07;;
19235;SDS011;9752;54.270;12.470;2022-10-03T05:08:41;27.00;;;6.77;;
19235;SDS011;9752;54.270;12.470;2022-10-03T05:13:57;21.77;;;6.40;;
19235;SDS011;9752;54.270;12.470;2022-10-03T05:19:19;28.37;;;6.53;;
19235;SDS011;9752;54.270;12.470;2022-10-03T05:24:39;22.00;;;6.43;;
19235;SDS011;9752;54.270;12.470;2022-10-03T05:29:54;19.60;;;5.70;;
19235;SDS011;9752;54.270;12.470;2022-10-03T05:35:11;30.97;;;7.17;;
19235;SDS011;9752;54.270;12.470;2022-10-03T05:40:29;37.67;;;7.57;;
19235;SDS011;9752;54.270;12.470;2022-10-03T05:45:40;28.47;;;7.17;;
19235;SDS011;9752;54.270;12.470;2022-10-03T05:50:59;33.47;;;8.13;;
19235;SDS011;9752;54.270;12.470;2022-10-03T05:56:14;26.17;;;6.87;;
19235;SDS011;9752;54.270;12.470;2022-10-03T06:01:43;26.30;;;6.47;;
19235;SDS011;9752;54.270;12.470;2022-10-03T06:07:04;24.13;;;6.83;;
19235;SDS011;9752;54.270;12.470;2022-10-03T06:12:18;20.73;;;6.60;;
19235;SDS011;9752;54.270;12.470;2022-10-03T06:23:19;19.27;;;6.03;;
19235;SDS011;9752;54.270;12.470;2022-10-03T06:28:48;24.90;;;6.93;;
19235;SDS011;9752;54.270;12.470;2022-10-03T06:34:19;27.10;;;7.67;;
19235;SDS011;9752;54.270;12.470;2022-10-03T06:45:30;26.50;;;6.93;;
19235;SDS011;9752;54.270;12.470;2022-10-03T06:51:03;28.03;;;7.90;;
19235;SDS011;9752;54.270;12.470;2022-10-03T07:13:17;23.27;;;6.73;;
19235;SDS011;9752;54.270;12.470;2022-10-03T07:18:59;24.60;;;7.73;;
19235;SDS011;9752;54.270;12.470;2022-10-03T07:24:21;20.40;;;6.93;;
19235;SDS011;9752;54.270;12.470;2022-10-03T07:29:55;22.43;;;6.50;;
19235;SDS011;9752;54.270;12.470;2022-10-03T07:35:18;17.37;;;6.50;;
19235;SDS011;9752;54.270;12.470;2022-10-03T07:41:00;16.53;;;6.80;;
19235;SDS011;9752;54.270;12.470;2022-10-03T07:51:59;33.83;;;6.60;;
19235;SDS011;9752;54.270;12.470;2022-10-03T07:57:24;23.83;;;6.93;;
19235;SDS011;9752;54.270;12.470;2022-10-03T08:02:43;18.00;;;5.83;;
19235;SDS011;9752;54.270;12.470;2022-10-03T08:08:09;23.23;;;7.03;;
19235;SDS011;9752;54.270;12.470;2022-10-03T08:13:37;23.57;;;7.00;;
19235;SDS011;9752;54.270;12.470;2022-10-03T08:19:03;26.53;;;6.47;;
19235;SDS011;9752;54.270;12.470;2022-10-03T08:24:19;20.93;;;6.00;;
19235;SDS011;9752;54.270;12.470;2022-10-03T08:35:33;23.33;;;6.37;;
19235;SDS011;9752;54.270;12.470;2022-10-03T08:40:59;15.03;;;5.17;;
19235;SDS011;9752;54.270;12.470;2022-10-03T08:46:29;13.13;;;5.40;;
19235;SDS011;9752;54.270;12.470;2022-10-03T08:51:57;14.70;;;5.37;;
19235;SDS011;9752;54.270;12.470;2022-10-03T08:57:18;22.63;;;5.93;;
19235;SDS011;9752;54.270;12.470;2022-10-03T09:08:17;16.87;;;5.47;;
19235;SDS011;9752;54.270;12.470;2022-10-03T09:19:24;15.47;;;4.20;;
19235;SDS011;9752;54.270;12.470;2022-10-03T09:25:00;12.77;;;4.33;;
19235;SDS011;9752;54.270;12.470;2022-10-03T09:30:18;17.13;;;4.87;;
19235;SDS011;9752;54.270;12.470;2022-10-03T09:35:34;13.07;;;4.87;;
19235;SDS011;9752;54.270;12.470;2022-10-03T09:41:00;17.77;;;6.07;;
19235;SDS011;9752;54.270;12.470;2022-10-03T09:46:29;12.40;;;5.23;;
19235;SDS011;9752;54.270;12.470;2022-10-03T09:51:43;16.67;;;5.77;;
19235;SDS011;9752;54.270;12.470;2022-10-03T09:57:02;17.33;;;5.43;;
19235;SDS011;9752;54.270;12.470;2022-10-03T10:08:50;11.37;;;5.30;;
19235;SDS011;9752;54.270;12.470;2022-10-03T10:14:24;11.60;;;5.53;;
19235;SDS011;9752;54.270;12.470;2022-10-03T10:19:50;15.70;;;5.03;;
19235;SDS011;9752;54.270;12.470;2022-10-03T10:48:09;16.83;;;5.30;;
19235;SDS011;9752;54.270;12.470;2022-10-03T10:53:55;15.10;;;5.43;;
19235;SDS011;9752;54.270;12.470;2022-10-03T11:10:35;15.07;;;5.40;;
19235;SDS011;9752;54.270;12.470;2022-10-03T11:16:01;14.13;;;5.47;;
19235;SDS011;9752;54.270;12.470;2022-10-03T11:39:03;25.97;;;7.00;;
19235;SDS011;9752;54.270;12.470;2022-10-03T11:44:15;18.43;;;6.60;;
19235;SDS011;9752;54.270;12.470;2022-10-03T11:49:25;20.03;;;5.90;;
19235;SDS011;9752;54.270;12.470;2022-10-03T11:54:38;20.83;;;7.47;;
19235;SDS011;9752;54.270;12.470;2022-10-03T11:59:50;22.17;;;6.87;;
19235;SDS011;9752;54.270;12.470;2022-10-03T12:05:00;23.87;;;6.93;;
19235;SDS011;9752;54.270;12.470;2022-10-03T12:10:10;22.30;;;8.37;;
19235;SDS011;9752;54.270;12.470;2022-10-03T12:15:28;17.63;;;7.60;;
19235;SDS011;9752;54.270;12.470;2022-10-03T12:20:43;29.47;;;7.53;;
19235;SDS011;9752;54.270;12.470;2022-10-03T12:26:04;20.10;;;7.27;;
19235;SDS011;9752;54.270;12.470;2022-10-03T12:31:16;22.37;;;7.37;;
19235;SDS011;9752;54.270;12.470;2022-10-03T12:36:24;27.33;;;7.47;;
19235;SDS011;9752;54.270;12.470;2022-10-03T12:47:07;24.90;;;8.13;;
19235;SDS011;9752;54.270;12.470;2022-10-03T12:52:28;19.00;;;6.03;;
19235;SDS011;9752;54.270;12.470;2022-10-03T12:57:43;22.40;;;7.30;;
19235;SDS011;9752;54.270;12.470;2022-10-03T13:02:53;18.20;;;6.73;;
19235;SDS011;9752;54.270;12.470;2022-10-03T13:08:10;24.47;;;7.07;;
19235;SDS011;9752;54.270;12.470;2022-10-03T13:13:26;26.73;;;6.73;;
19235;SDS011;9752;54.270;12.470;2022-10-03T13:18:42;24.53;;;6.83;;
19235;SDS011;9752;54.270;12.470;2022-10-03T13:23:49;27.73;;;6.87;;
19235;SDS011;9752;54.270;12.470;2022-10-03T13:34:31;15.30;;;6.07;;
19235;SDS011;9752;54.270;12.470;2022-10-03T13:39:38;18.73;;;6.37;;
19235;SDS011;9752;54.270;12.470;2022-10-03T13:44:50;25.73;;;7.30;;
19235;SDS011;9752;54.270;12.470;2022-10-03T13:49:56;24.43;;;6.60;;
19235;SDS011;9752;54.270;12.470;2022-10-03T14:00:43;21.00;;;7.07;;
19235;SDS011;9752;54.270;12.470;2022-10-03T14:05:56;17.60;;;6.63;;
19235;SDS011;9752;54.270;12.470;2022-10-03T14:11:09;17.40;;;6.10;;
19235;SDS011;9752;54.270;12.470;2022-10-03T14:16:25;20.63;;;7.17;;
19235;SDS011;9752;54.270;12.470;2022-10-03T14:21:35;22.90;;;6.97;;
19235;SDS011;9752;54.270;12.470;2022-10-03T14:26:46;17.13;;;6.33;;
19235;SDS011;9752;54.270;12.470;2022-10-03T14:31:59;16.47;;;6.70;;
19235;SDS011;9752;54.270;12.470;2022-10-03T14:37:08;16.17;;;7.77;;
19235;SDS011;9752;54.270;12.470;2022-10-03T14:42:31;16.43;;;8.23;;
19235;SDS011;9752;54.270;12.470;2022-10-03T14:47:45;18.27;;;7.90;;
19235;SDS011;9752;54.270;12.470;2022-10-03T14:52:51;15.67;;;7.37;;
19235;SDS011;9752;54.270;12.470;2022-10-03T14:58:02;14.17;;;6.77;;
19235;SDS011;9752;54.270;12.470;2022-10-03T15:03:22;18.47;;;7.23;;
19235;SDS011;9752;54.270;12.470;2022-10-03T15:08:30;12.47;;;6.57;;
19235;SDS011;9752;54.270;12.470;2022-10-03T15:13:39;15.80;;;6.50;;
19235;SDS011;9752;54.270;12.470;2022-10-03T15:18:49;19.93;;;7.60;;
19235;SDS011;9752;54.270;12.470;2022-10-03T15:23:53;15.20;;;6.97;;
19235;SDS011;9752;54.270;12.470;2022-10-03T15:29:00;11.43;;;6.03;;
19235;SDS011;9752;54.270;12.470;2022-10-03T15:34:11;15.20;;;6.10;;
19235;SDS011;9752;54.270;12.470;2022-10-03T15:39:18;12.77;;;5.23;;
19235;SDS011;9752;54.270;12.470;2022-10-03T15:44:26;15.67;;;6.00;;
19235;SDS011;9752;54.270;12.470;2022-10-03T15:49:35;16.77;;;5.47;;
19235;SDS011;9752;54.270;12.470;2022-10-03T15:54:41;17.47;;;5.50;;
19235;SDS011;9752;54.270;12.470;2022-10-03T15:59:48;19.23;;;6.40;;
19235;SDS011;9752;54.270;12.470;2022-10-03T16:04:54;16.10;;;6.17;;
19235;SDS011;9752;54.270;12.470;2022-10-03T16:10:00;13.23;;;5.83;;
19235;SDS011;9752;54.270;12.470;2022-10-03T16:15:15;24.27;;;5.80;;
19235;SDS011;9752;54.270;12.470;2022-10-03T16:20:24;11.40;;;5.77;;
19235;SDS011;9752;54.270;12.470;2022-10-03T16:25:31;16.97;;;6.23;;
19235;SDS011;9752;54.270;12.470;2022-10-03T16:30:46;16.93;;;6.73;;
19235;SDS011;9752;54.270;12.470;2022-10-03T16:35:55;16.70;;;5.97;;
19235;SDS011;9752;54.270;12.470;2022-10-03T16:40:59;16.67;;;6.30;;
19235;SDS011;9752;54.270;12.470;2022-10-03T16:46:08;13.23;;;5.40;;
19235;SDS011;9752;54.270;12.470;2022-10-03T16:51:17;19.13;;;6.17;;
19235;SDS011;9752;54.270;12.470;2022-10-03T16:56:21;20.53;;;5.30;;
19235;SDS011;9752;54.270;12.470;2022-10-03T17:01:30;20.23;;;5.67;;
19235;SDS011;9752;54.270;12.470;2022-10-03T17:06:37;24.37;;;5.90;;
19235;SDS011;9752;54.270;12.470;2022-10-03T17:11:40;17.67;;;6.03;;
19235;SDS011;9752;54.270;12.470;2022-10-03T17:16:47;18.23;;;6.13;;
19235;SDS011;9752;54.270;12.470;2022-10-03T17:21:54;17.87;;;5.87;;
19235;SDS011;9752;54.270;12.470;2022-10-03T17:27:00;12.90;;;5.00;;
19235;SDS011;9752;54.270;12.470;2022-10-03T17:32:08;21.57;;;6.63;;
19235;SDS011;9752;54.270;12.470;2022-10-03T17:37:23;19.27;;;5.20;;
19235;SDS011;9752;54.270;12.470;2022-10-03T17:42:44;18.47;;;4.83;;
19235;SDS011;9752;54.270;12.470;2022-10-03T17:47:52;13.17;;;4.77;;
19235;SDS011;9752;54.270;12.470;2022-10-03T17:52:59;15.37;;;5.30;;
19235;SDS011;9752;54.270;12.470;2022-10-03T17:58:03;18.80;;;5.07;;
19235;SDS011;9752;54.270;12.470;2022-10-03T18:03:06;12.33;;;4.63;;
19235;SDS011;9752;54.270;12.470;2022-10-03T18:08:13;12.07;;;5.13;;
19235;SDS011;9752;54.270;12.470;2022-10-03T18:13:20;19.70;;;5.77;;
19235;SDS011;9752;54.270;12.470;2022-10-03T18:24:09;16.27;;;4.47;;
19235;SDS011;9752;54.270;12.470;2022-10-03T18:29:20;14.10;;;5.83;;
19235;SDS011;9752;54.270;12.470;2022-10-03T18:34:30;15.13;;;4.50;;
19235;SDS011;9752;54.270;12.470;2022-10-03T18:39:37;14.80;;;4.50;;
19235;SDS011;9752;54.270;12.470;2022-10-03T18:44:41;12.10;;;4.50;;
19235;SDS011;9752;54.270;12.470;2022-10-03T18:49:46;14.63;;;5.00;;
19235;SDS011;9752;54.270;12.470;2022-10-03T18:55:02;15.47;;;4.70;;
19235;SDS011;9752;54.270;12.470;2022-10-03T19:00:14;14.43;;;4.70;;
19235;SDS011;9752;54.270;12.470;2022-10-03T19:05:19;14.10;;;5.40;;
19235;SDS011;9752;54.270;12.470;2022-10-03T19:10:29;14.37;;;4.57;;
19235;SDS011;9752;54.270;12.470;2022-10-03T19:15:39;18.90;;;6.07;;
19235;SDS011;9752;54.270;12.470;2022-10-03T19:20:49;20.13;;;6.27;;
19235;SDS011;9752;54.270;12.470;2022-10-03T19:25:59;25.10;;;6.87;;
19235;SDS011;9752;54.270;12.470;2022-10-03T19:31:05;16.20;;;5.27;;
19235;SDS011;9752;54.270;12.470;2022-10-03T19:36:16;15.57;;;4.80;;
19235;SDS011;9752;54.270;12.470;2022-10-03T19:41:25;14.77;;;4.97;;
19235;SDS011;9752;54.270;12.470;2022-10-03T19:46:38;11.93;;;5.10;;
19235;SDS011;9752;54.270;12.470;2022-10-03T19:51:50;16.37;;;4.87;;
19235;SDS011;9752;54.270;12.470;2022-10-03T19:56:54;15.20;;;4.97;;
19235;SDS011;9752;54.270;12.470;2022-10-03T20:01:56;11.80;;;4.40;;
19235;SDS011;9752;54.270;12.470;2022-10-03T20:07:09;12.20;;;4.47;;
19235;SDS011;9752;54.270;12.470;2022-10-03T20:12:18;11.47;;;4.97;;
19235;SDS011;9752;54.270;12.470;2022-10-03T20:17:20;14.13;;;5.03;;
19235;SDS011;9752;54.270;12.470;2022-10-03T20:22:24;13.00;;;4.70;;
19235;SDS011;9752;54.270;12.470;2022-10-03T20:27:33;10.87;;;4.93;;
19235;SDS011;9752;54.270;12.470;2022-10-03T20:32:41;15.70;;;4.97;;
19235;SDS011;9752;54.270;12.470;2022-10-03T20:37:45;11.70;;;5.40;;
19235;SDS011;9752;54.270;12.470;2022-10-03T20:42:57;12.57;;;5.37;;
19235;SDS011;9752;54.270;12.470;2022-10-03T20:48:21;16.10;;;5.30;;
19235;SDS011;9752;54.270;12.470;2022-10-03T20:53:26;21.17;;;5.17;;
19235;SDS011;9752;54.270;12.470;2022-10-03T20:58:31;12.00;;;4.67;;
19235;SDS011;9752;54.270;12.470;2022-10-03T21:03:39;12.23;;;5.20;;
19235;SDS011;9752;54.270;12.470;2022-10-03T21:08:51;18.47;;;5.77;;
19235;SDS011;9752;54.270;12.470;2022-10-03T21:13:57;19.47;;;6.03;;
19235;SDS011;9752;54.270;12.470;2022-10-03T21:19:05;20.93;;;5.43;;
19235;SDS011;9752;54.270;12.470;2022-10-03T21:24:16;17.00;;;6.77;;
19235;SDS011;9752;54.270;12.470;2022-10-03T21:29:27;15.37;;;5.47;;
19235;SDS011;9752;54.270;12.470;2022-10-03T21:34:31;20.43;;;5.40;;
19235;SDS011;9752;54.270;12.470;2022-10-03T21:39:42;10.33;;;4.73;;
19235;SDS011;9752;54.270;12.470;2022-10-03T21:45:02;14.20;;;4.63;;
19235;SDS011;9752;54.270;12.470;2022-10-03T21:50:18;22.23;;;5.33;;
19235;SDS011;9752;54.270;12.470;2022-10-03T21:55:31;12.00;;;5.10;;
19235;SDS011;9752;54.270;12.470;2022-10-03T22:00:52;14.10;;;5.03;;
19235;SDS011;9752;54.270;12.470;2022-10-03T22:06:05;17.40;;;5.87;;
19235;SDS011;9752;54.270;12.470;2022-10-03T22:11:24;18.10;;;6.07;;
19235;SDS011;9752;54.270;12.470;2022-10-03T22:16:36;15.90;;;4.43;;
19235;SDS011;9752;54.270;12.470;2022-10-03T22:21:49;16.23;;;5.80;;
19235;SDS011;9752;54.270;12.470;2022-10-03T22:27:03;18.67;;;5.57;;
19235;SDS011;9752;54.270;12.470;2022-10-03T22:32:12;24.03;;;6.00;;
19235;SDS011;9752;54.270;12.470;2022-10-03T22:37:18;14.83;;;5.40;;
19235;SDS011;9752;54.270;12.470;2022-10-03T22:42:21;16.60;;;4.77;;
19235;SDS011;9752;54.270;12.470;2022-10-03T22:47:25;15.43;;;4.97;;
19235;SDS011;9752;54.270;12.470;2022-10-03T22:52:31;25.13;;;7.17;;
19235;SDS011;9752;54.270;12.470;2022-10-03T22:57:36;19.67;;;5.70;;
19235;SDS011;9752;54.270;12.470;2022-10-03T23:02:41;16.40;;;5.90;;
19235;SDS011;9752;54.270;12.470;2022-10-03T23:07:53;19.53;;;5.50;;
19235;SDS011;9752;54.270;12.470;2022-10-03T23:13:05;15.43;;;5.70;;
19235;SDS011;9752;54.270;12.470;2022-10-03T23:18:22;13.53;;;5.50;;
19235;SDS011;9752;54.270;12.470;2022-10-03T23:23:44;15.60;;;5.33;;
19235;SDS011;9752;54.270;12.470;2022-10-03T23:28:55;18.40;;;5.57;;
19235;SDS011;9752;54.270;12.470;2022-10-03T23:34:06;21.77;;;5.40;;
19235;SDS011;9752;54.270;12.470;2022-10-03T23:39:11;21.47;;;5.67;;
19235;SDS011;9752;54.270;12.470;2022-10-03T23:44:39;17.10;;;5.40;;
19235;SDS011;9752;54.270;12.470;2022-10-03T23:49:47;16.23;;;6.00;;
19235;SDS011;9752;54.270;12.470;2022-10-03T23:54:51;16.23;;;4.40;;
19235;SDS011;9752;54.270;12.470;2022-10-03T23:59:55;13.97;;;5.33;;
